createdAt,value
2018-12-21T00:00:24.049Z,98446.98
2018-12-21T00:03:27.272Z,98446.27
2018-12-21T00:06:30.565Z,98443.34
2018-12-21T00:09:33.851Z,98437.28
2018-12-21T00:12:37.255Z,98432.86
2018-12-21T00:15:40.653Z,98430.66
2018-12-21T00:18:43.908Z,98425.58
2018-12-21T00:21:47.128Z,98411.70
2018-12-21T00:24:50.430Z,98421.38
2018-12-21T00:27:53.741Z,98425.09
2018-12-21T00:31:02.496Z,98419.89
2018-12-21T00:34:11.267Z,98411.08
2018-12-21T00:37:20.073Z,98409.27
2018-12-21T00:40:28.868Z,98414.73
2018-12-21T00:43:34.029Z,98411.25
2018-12-21T00:46:38.587Z,98408.75
2018-12-21T00:49:41.968Z,98413.36
2018-12-21T00:52:45.184Z,98411.09
2018-12-21T00:55:48.400Z,98405.45
2018-12-21T00:58:51.628Z,98413.45
2018-12-21T01:01:54.908Z,98402.31
2018-12-21T01:04:58.128Z,98403.90
2018-12-21T01:08:01.419Z,98388.05
2018-12-21T01:11:04.656Z,98387.92
2018-12-21T01:14:07.976Z,98376.74
2018-12-21T01:17:11.202Z,98369.28
2018-12-21T01:20:14.479Z,98368.47
2018-12-21T01:23:17.756Z,98373.55
2018-12-21T01:26:20.991Z,98379.16
2018-12-21T01:29:24.216Z,98372.78
2018-12-21T01:32:27.424Z,98377.86
2018-12-21T01:35:30.648Z,98382.67
2018-12-21T01:38:33.926Z,98389.66
2018-12-21T01:41:37.161Z,98404.89
2018-12-21T01:44:40.465Z,98407.98
2018-12-21T01:47:43.709Z,98413.63
2018-12-21T01:50:46.933Z,98413.63
2018-12-21T01:53:50.154Z,98411.05
2018-12-21T01:56:53.464Z,98404.89
2018-12-21T01:59:56.692Z,98402.52
2018-12-21T02:03:00.012Z,98393.96
2018-12-21T02:06:03.248Z,98402.56
2018-12-21T02:09:07.033Z,98396.41
2018-12-21T02:12:10.280Z,98386.30
2018-12-21T02:15:13.552Z,98387.23
2018-12-21T02:18:16.772Z,98380.31
2018-12-21T02:21:19.993Z,98378.16
2018-12-21T02:24:23.217Z,98380.78
2018-12-21T02:27:26.493Z,98378.11
2018-12-21T02:30:29.761Z,98382.72
2018-12-21T02:33:33.065Z,98373.34
2018-12-21T02:36:36.288Z,98365.59
2018-12-21T02:39:39.540Z,98355.04
2018-12-21T02:42:42.756Z,98355.42
2018-12-21T02:45:46.071Z,98355.13
2018-12-21T02:48:49.267Z,98361.28
2018-12-21T02:51:52.497Z,98352.08
2018-12-21T02:54:55.742Z,98352.68
2018-12-21T02:57:58.958Z,98356.69
2018-12-21T03:01:02.233Z,98341.44
2018-12-21T03:04:05.535Z,98332.06
2018-12-21T03:07:08.764Z,98320.83
2018-12-21T03:10:11.993Z,98322.69
2018-12-21T03:13:15.325Z,98314.46
2018-12-21T03:16:18.530Z,98310.02
2018-12-21T03:19:21.779Z,98291.52
2018-12-21T03:22:25.085Z,98295.86
2018-12-21T03:25:28.420Z,98289.14
2018-12-21T03:28:31.624Z,98282.10
2018-12-21T03:31:34.921Z,98273.31
2018-12-21T03:34:38.294Z,98259.61
2018-12-21T03:37:41.572Z,98258.23
2018-12-21T03:40:44.804Z,98245.45
2018-12-21T03:43:48.057Z,98240.74
2018-12-21T03:46:51.397Z,98230.07
2018-12-21T03:49:54.605Z,98218.59
2018-12-21T03:52:57.957Z,98208.95
2018-12-21T03:56:01.153Z,98202.02
2018-12-21T03:59:04.724Z,98199.84
2018-12-21T04:02:08.037Z,98201.36
2018-12-21T04:05:11.296Z,98198.17
2018-12-21T04:08:14.683Z,98181.66
2018-12-21T04:11:18.045Z,98172.88
2018-12-21T04:14:21.245Z,98165.42
2018-12-21T04:17:24.464Z,98158.69
2018-12-21T04:20:27.745Z,98156.53
2018-12-21T04:23:31.080Z,98161.02
2018-12-21T04:26:34.469Z,98172.54
2018-12-21T04:29:37.694Z,98166.16
2018-12-21T04:32:40.997Z,98173.65
2018-12-21T04:35:44.310Z,98176.88
2018-12-21T04:38:47.555Z,98182.27
2018-12-21T04:41:50.858Z,98182.76
2018-12-21T04:44:54.154Z,98174.01
2018-12-21T04:47:57.373Z,98169.19
2018-12-21T04:51:00.597Z,98172.27
2018-12-21T04:54:03.844Z,98166.36
2018-12-21T04:57:07.173Z,98164.30
2018-12-21T05:00:10.463Z,98157.59
2018-12-21T05:03:13.720Z,98152.58
2018-12-21T05:06:17.021Z,98152.75
2018-12-21T05:09:20.240Z,98153.73
2018-12-21T05:12:23.468Z,98145.01
2018-12-21T05:15:26.696Z,98138.11
2018-12-21T05:18:29.986Z,98145.80
2018-12-21T05:21:33.212Z,98139.15
2018-12-21T05:24:36.427Z,98144.25
2018-12-21T05:27:39.736Z,98127.95
2018-12-21T05:30:42.989Z,98122.59
2018-12-21T05:33:46.320Z,98118.33
2018-12-21T05:36:49.568Z,98112.20
2018-12-21T05:39:52.808Z,98126.36
2018-12-21T05:42:56.034Z,98111.13
2018-12-21T05:45:59.291Z,98103.67
2018-12-21T05:49:02.499Z,98105.06
2018-12-21T05:52:05.756Z,98093.34
2018-12-21T05:55:09.058Z,98099.46
2018-12-21T05:58:12.263Z,98101.15
2018-12-21T06:01:15.553Z,98101.19
2018-12-21T06:04:18.753Z,98094.31
2018-12-21T06:07:21.980Z,98086.59
2018-12-21T06:10:25.192Z,98081.01
2018-12-21T06:13:28.412Z,98079.70
2018-12-21T06:16:31.663Z,98065.03
2018-12-21T06:19:35.008Z,98061.83
2018-12-21T06:22:38.263Z,98063.20
2018-12-21T06:25:41.517Z,98059.75
2018-12-21T06:28:44.720Z,98058.16
2018-12-21T06:31:47.941Z,98043.73
2018-12-21T06:34:51.200Z,98032.23
2018-12-21T06:37:54.417Z,98034.67
2018-12-21T06:40:57.671Z,98033.59
2018-12-21T06:44:00.911Z,98017.83
2018-12-21T06:47:04.203Z,98012.48
2018-12-21T06:50:07.579Z,98003.12
2018-12-21T06:53:17.962Z,97994.58
2018-12-21T06:56:16.102Z,97984.11
2018-12-21T06:59:19.408Z,97974.48
2018-12-21T07:02:22.665Z,97975.02
2018-12-21T07:05:25.884Z,97969.12
2018-12-21T07:08:29.109Z,97959.48
2018-12-21T07:11:32.327Z,97963.46
2018-12-21T07:14:35.579Z,97956.27
2018-12-21T07:17:38.823Z,97940.77
2018-12-21T07:20:42.099Z,97939.16
2018-12-21T07:23:45.344Z,97930.34
2018-12-21T07:26:48.577Z,97920.70
2018-12-21T07:29:51.833Z,97909.27
2018-12-21T07:32:55.136Z,97910.88
2018-12-21T07:35:58.351Z,97906.30
2018-12-21T07:39:01.674Z,97903.38
2018-12-21T07:42:04.970Z,97905.03
2018-12-21T07:45:08.766Z,97898.06
2018-12-21T07:48:12.036Z,97887.10
2018-12-21T07:51:15.280Z,97895.13
2018-12-21T07:54:18.503Z,97897.26
2018-12-21T07:57:21.725Z,97915.96
2018-12-21T08:00:24.956Z,97894.58
2018-12-21T08:03:28.191Z,97895.65
2018-12-21T08:06:31.558Z,97889.25
2018-12-21T08:09:34.876Z,97883.08
2018-12-21T08:12:38.099Z,97891.07
2018-12-21T08:15:41.320Z,97875.61
2018-12-21T08:18:44.544Z,97882.25
2018-12-21T08:21:47.764Z,97885.73
2018-12-21T08:24:50.978Z,97885.45
2018-12-21T08:27:54.196Z,97878.50
2018-12-21T08:30:57.420Z,97874.52
2018-12-21T08:34:00.642Z,97868.64
2018-12-21T08:37:03.873Z,97860.91
2018-12-21T08:40:08.289Z,97875.59
2018-12-21T08:43:11.604Z,97845.41
2018-12-21T08:46:14.825Z,97851.81
2018-12-21T08:49:18.073Z,97836.06
2018-12-21T08:52:21.337Z,97837.66
2018-12-21T08:55:24.572Z,97831.51
2018-12-21T08:58:27.797Z,97831.27
2018-12-21T09:01:31.012Z,97824.31
2018-12-21T09:04:34.238Z,97819.77
2018-12-21T09:07:37.496Z,97829.66
2018-12-21T09:10:40.829Z,97824.61
2018-12-21T09:13:44.056Z,97839.00
2018-12-21T09:16:47.280Z,97828.61
2018-12-21T09:19:50.560Z,97837.67
2018-12-21T09:22:53.789Z,97841.14
2018-12-21T09:25:57.033Z,97833.95
2018-12-21T09:29:00.305Z,97831.31
2018-12-21T09:32:05.195Z,97813.40
2018-12-21T09:35:08.853Z,97816.88
2018-12-21T09:38:12.087Z,97798.72
2018-12-21T09:41:15.295Z,97782.98
2018-12-21T09:44:18.517Z,97765.63
2018-12-21T09:47:21.735Z,97758.69
2018-12-21T09:50:25.102Z,97742.38
2018-12-21T09:53:28.553Z,97732.76
2018-12-21T09:56:31.744Z,97718.61
2018-12-21T09:59:34.976Z,97731.20
2018-12-21T10:02:38.288Z,97707.13
2018-12-21T10:05:41.581Z,97711.12
2018-12-21T10:08:44.860Z,97718.61
2018-12-21T10:11:48.197Z,97705.27
2018-12-21T10:14:51.402Z,97691.89
2018-12-21T10:17:54.621Z,97687.61
2018-12-21T10:20:57.840Z,97687.05
2018-12-21T10:24:01.149Z,97673.72
2018-12-21T10:27:04.376Z,97660.89
2018-12-21T10:30:09.771Z,97655.24
2018-12-21T10:33:13.079Z,97645.58
2018-12-21T10:36:16.273Z,97635.89
2018-12-21T10:39:19.616Z,97627.83
2018-12-21T10:42:23.082Z,97624.30
2018-12-21T10:45:26.310Z,97622.45
2018-12-21T10:48:29.665Z,97614.94
2018-12-21T10:51:32.969Z,97610.60
2018-12-21T10:54:36.225Z,97611.98
2018-12-21T10:57:39.446Z,97606.34
2018-12-21T11:00:42.660Z,97588.48
2018-12-21T11:03:45.884Z,97585.52
2018-12-21T11:06:49.255Z,97594.27
2018-12-21T11:09:52.653Z,97586.45
2018-12-21T11:12:55.889Z,97576.73
2018-12-21T11:15:59.109Z,97562.76
2018-12-21T11:19:02.448Z,97553.85
2018-12-21T11:22:05.711Z,97550.21
2018-12-21T11:25:11.020Z,97555.83
2018-12-21T11:28:14.241Z,97546.97
2018-12-21T11:31:17.460Z,97555.02
2018-12-21T11:34:20.672Z,97558.60
2018-12-21T11:37:23.916Z,97547.77
2018-12-21T11:40:27.158Z,97547.93
2018-12-21T11:43:30.393Z,97550.09
2018-12-21T11:46:33.609Z,97550.59
2018-12-21T11:49:36.836Z,97542.48
2018-12-21T11:52:40.145Z,97543.01
2018-12-21T11:55:43.376Z,97545.08
2018-12-21T11:58:46.719Z,97536.06
2018-12-21T12:01:50.019Z,97530.71
2018-12-21T12:04:53.244Z,97542.94
2018-12-21T12:07:56.526Z,97530.56
2018-12-21T12:10:59.732Z,97521.45
2018-12-21T12:14:03.007Z,97524.87
2018-12-21T12:17:06.324Z,97531.03
2018-12-21T12:20:09.620Z,97531.56
2018-12-21T12:23:12.852Z,97524.47
2018-12-21T12:26:16.104Z,97531.27
2018-12-21T12:29:19.340Z,97514.97
2018-12-21T12:32:22.562Z,97517.43
2018-12-21T12:35:25.788Z,97513.65
2018-12-21T12:38:29.020Z,97503.30
2018-12-21T12:41:32.327Z,97509.06
2018-12-21T12:44:35.583Z,97505.10
2018-12-21T12:47:38.809Z,97508.39
2018-12-21T12:50:42.039Z,97510.69
2018-12-21T12:53:45.292Z,97502.75
2018-12-21T12:56:48.732Z,97503.53
2018-12-21T12:59:51.984Z,97525.09
2018-12-21T13:02:55.261Z,97513.75
2018-12-21T13:05:58.496Z,97508.36
2018-12-21T13:09:01.727Z,97504.78
2018-12-21T13:12:04.981Z,97510.98
2018-12-21T13:15:09.250Z,97511.78
2018-12-21T13:18:12.480Z,97516.55
2018-12-21T13:21:15.766Z,97522.99
2018-12-21T13:24:19.016Z,97528.09
2018-12-21T13:27:22.264Z,97527.73
2018-12-21T13:30:25.520Z,97528.45
2018-12-21T13:33:28.759Z,97516.70
2018-12-21T13:36:31.999Z,97523.50
2018-12-21T13:39:35.238Z,97528.54
2018-12-21T13:42:38.481Z,97540.88
2018-12-21T13:45:41.729Z,97550.14
2018-12-21T13:48:45.129Z,97539.16
2018-12-21T13:51:48.337Z,97550.59
2018-12-21T13:54:51.581Z,97551.94
2018-12-21T13:57:57.841Z,97554.35
2018-12-21T14:01:02.333Z,97547.40
2018-12-21T14:04:05.591Z,97564.44
2018-12-21T14:07:08.816Z,97572.48
2018-12-21T14:10:12.099Z,97577.80
2018-12-21T14:13:15.340Z,97578.36
2018-12-21T14:16:18.643Z,97574.06
2018-12-21T14:19:21.876Z,97585.22
2018-12-21T14:22:25.202Z,97575.30
2018-12-21T14:25:29.068Z,97572.97
2018-12-21T14:28:32.660Z,97565.78
2018-12-21T14:31:35.928Z,97569.29
2018-12-21T14:34:39.197Z,97566.93
2018-12-21T14:37:42.489Z,97571.41
2018-12-21T14:40:45.929Z,97571.33
2018-12-21T14:43:49.158Z,97581.03
2018-12-21T14:46:52.388Z,97583.48
2018-12-21T14:49:55.636Z,97581.55
2018-12-21T14:52:58.896Z,97589.03
2018-12-21T14:56:02.133Z,97595.42
2018-12-21T14:59:05.400Z,97603.97
2018-12-21T15:02:08.619Z,97605.42
2018-12-21T15:05:11.900Z,97607.33
2018-12-21T15:08:15.144Z,97606.23
2018-12-21T15:11:18.393Z,97613.66
2018-12-21T15:14:21.636Z,97617.68
2018-12-21T15:17:24.892Z,97620.47
2018-12-21T15:20:28.186Z,97611.11
2018-12-21T15:23:31.391Z,97618.56
2018-12-21T15:26:34.644Z,97623.37
2018-12-21T15:29:37.872Z,97634.93
2018-12-21T15:32:41.099Z,97636.52
2018-12-21T15:35:44.328Z,97626.91
2018-12-21T15:38:47.564Z,97628.25
2018-12-21T15:41:50.793Z,97639.92
2018-12-21T15:44:54.162Z,97641.00
2018-12-21T15:47:57.417Z,97654.78
2018-12-21T15:51:00.655Z,97649.16
2018-12-21T15:54:03.908Z,97644.56
2018-12-21T15:57:07.210Z,97647.52
2018-12-21T16:00:12.022Z,97645.69
2018-12-21T16:03:15.376Z,97645.16
2018-12-21T16:06:18.721Z,97650.92
2018-12-21T16:09:21.948Z,97658.70
2018-12-21T16:12:25.173Z,97659.27
2018-12-21T16:15:28.409Z,97670.75
2018-12-21T16:18:31.653Z,97678.80
2018-12-21T16:21:34.879Z,97674.99
2018-12-21T16:24:38.112Z,97667.22
2018-12-21T16:27:41.494Z,97674.11
2018-12-21T16:30:44.724Z,97674.63
2018-12-21T16:33:47.966Z,97675.87
2018-12-21T16:36:51.213Z,97670.84
2018-12-21T16:39:54.549Z,97681.66
2018-12-21T16:42:57.802Z,97682.67
2018-12-21T16:46:01.064Z,97683.19
2018-12-21T16:49:04.356Z,97669.98
2018-12-21T16:52:08.403Z,97679.88
2018-12-21T16:55:11.659Z,97686.80
2018-12-21T16:58:14.990Z,97692.47
2018-12-21T17:01:18.362Z,97699.13
2018-12-21T17:04:21.604Z,97695.05
2018-12-21T17:07:24.841Z,97705.46
2018-12-21T17:10:28.360Z,97713.33
2018-12-21T17:13:31.768Z,97707.61
2018-12-21T17:16:35.004Z,97717.16
2018-12-21T17:19:38.357Z,97712.55
2018-12-21T17:22:41.653Z,97712.63
2018-12-21T17:25:44.928Z,97713.38
2018-12-21T17:28:48.169Z,97706.34
2018-12-21T17:31:51.528Z,97722.09
2018-12-21T17:34:56.020Z,97723.95
2018-12-21T17:37:59.386Z,97736.25
2018-12-21T17:41:02.633Z,97736.84
2018-12-21T17:44:05.878Z,97736.76
2018-12-21T17:47:09.110Z,97746.37
2018-12-21T17:50:12.449Z,97763.95
2018-12-21T17:53:15.691Z,97757.89
2018-12-21T17:56:18.920Z,97765.56
2018-12-21T17:59:22.164Z,97765.56
2018-12-21T18:02:25.424Z,97776.88
2018-12-21T18:05:28.657Z,97771.12
2018-12-21T18:08:31.938Z,97777.39
2018-12-21T18:11:35.250Z,97791.43
2018-12-21T18:14:38.472Z,97786.47
2018-12-21T18:17:41.707Z,97788.14
2018-12-21T18:20:45.040Z,97786.27
2018-12-21T18:23:49.242Z,97783.34
2018-12-21T18:26:52.485Z,97784.20
2018-12-21T18:29:55.748Z,97793.58
2018-12-21T18:32:59.014Z,97793.25
2018-12-21T18:36:02.368Z,97787.61
2018-12-21T18:39:06.568Z,97794.51
2018-12-21T18:42:09.842Z,97787.07
2018-12-21T18:45:13.107Z,97782.65
2018-12-21T18:48:16.475Z,97782.44
2018-12-21T18:51:19.799Z,97779.42
2018-12-21T18:54:23.088Z,97767.16
2018-12-21T18:57:26.346Z,97774.20
2018-12-21T19:00:29.579Z,97774.22
2018-12-21T19:03:32.917Z,97781.21
2018-12-21T19:06:36.169Z,97781.48
2018-12-21T19:09:39.388Z,97779.89
2018-12-21T19:12:42.641Z,97770.22
2018-12-21T19:15:45.905Z,97768.80
2018-12-21T19:18:49.112Z,97774.15
2018-12-21T19:21:52.396Z,97760.80
2018-12-21T19:24:55.797Z,97765.05
2018-12-21T19:27:59.036Z,97770.69
2018-12-21T19:31:02.454Z,97765.05
2018-12-21T19:34:05.773Z,97772.59
2018-12-21T19:37:09.021Z,97771.03
2018-12-21T19:40:12.385Z,97771.78
2018-12-21T19:43:15.631Z,97780.92
2018-12-21T19:46:18.876Z,97774.69
2018-12-21T19:49:22.149Z,97767.97
2018-12-21T19:52:25.446Z,97777.38
2018-12-21T19:55:35.131Z,97774.36
2018-12-21T19:58:38.414Z,97792.09
2018-12-21T20:01:41.639Z,97787.28
2018-12-21T20:04:44.888Z,97785.41
2018-12-21T20:07:48.149Z,97794.19
2018-12-21T20:10:51.503Z,97804.13
2018-12-21T20:13:55.045Z,97791.50
2018-12-21T20:16:58.319Z,97797.38
2018-12-21T20:20:01.716Z,97785.89
2018-12-21T20:23:04.988Z,97791.05
2018-12-21T20:26:08.256Z,97785.45
2018-12-21T20:29:11.492Z,97784.89
2018-12-21T20:32:14.998Z,97792.95
2018-12-21T20:35:18.375Z,97798.34
2018-12-21T20:38:21.803Z,97792.95
2018-12-21T20:41:25.145Z,97784.46
2018-12-21T20:44:28.655Z,97793.38
2018-12-21T20:47:31.936Z,97791.80
2018-12-21T20:50:35.386Z,97802.56
2018-12-21T20:53:38.815Z,97796.98
2018-12-21T20:56:42.797Z,97803.70
2018-12-21T20:59:46.042Z,97797.27
2018-12-21T21:02:49.276Z,97796.52
2018-12-21T21:05:52.801Z,97804.89
2018-12-21T21:08:56.096Z,97807.27
2018-12-21T21:11:59.408Z,97798.86
2018-12-21T21:15:02.718Z,97794.86
2018-12-21T21:18:05.974Z,97795.80
2018-12-21T21:21:09.223Z,97796.11
2018-12-21T21:24:12.531Z,97801.72
2018-12-21T21:27:15.768Z,97797.08
2018-12-21T21:30:20.117Z,97806.27
2018-12-21T21:33:23.472Z,97815.69
2018-12-21T21:36:26.700Z,97811.08
2018-12-21T21:39:30.212Z,97816.27
2018-12-21T21:42:33.483Z,97835.73
2018-12-21T21:45:36.916Z,97833.83
2018-12-21T21:48:40.208Z,97829.21
2018-12-21T21:51:43.774Z,97823.32
2018-12-21T21:54:47.012Z,97834.46
2018-12-21T21:57:50.245Z,97834.46
2018-12-21T22:00:53.747Z,97821.03
2018-12-21T22:03:57.036Z,97824.23
2018-12-21T22:07:00.328Z,97835.83
2018-12-21T22:10:06.343Z,97835.58
2018-12-21T22:13:09.652Z,97835.07
2018-12-21T22:16:13.165Z,97845.91
2018-12-21T22:19:16.461Z,97850.78
2018-12-21T22:22:19.800Z,97856.80
2018-12-21T22:25:23.012Z,97853.94
2018-12-21T22:28:26.241Z,97850.24
2018-12-21T22:31:29.503Z,97856.77
2018-12-21T22:34:32.794Z,97851.98
2018-12-21T22:37:36.413Z,97848.59
2018-12-21T22:40:39.729Z,97853.94
2018-12-21T22:43:42.988Z,97855.01
2018-12-21T22:46:46.280Z,97846.64
2018-12-21T22:49:49.539Z,97847.85
2018-12-21T22:52:52.784Z,97855.95
2018-12-21T22:55:56.064Z,97850.42
2018-12-21T22:58:59.610Z,97860.58
2018-12-21T23:02:02.864Z,97857.91
2018-12-21T23:05:06.144Z,97846.84
2018-12-21T23:08:09.603Z,97856.52
2018-12-21T23:11:12.869Z,97854.60
2018-12-21T23:14:16.135Z,97857.29
2018-12-21T23:17:19.400Z,97857.27
2018-12-21T23:20:22.653Z,97847.36
2018-12-21T23:23:26.012Z,97847.34
2018-12-21T23:26:29.300Z,97842.19
2018-12-21T23:29:32.548Z,97847.70
2018-12-21T23:32:35.772Z,97846.71
2018-12-21T23:35:39.047Z,97852.13
2018-12-21T23:38:42.283Z,97852.91
2018-12-21T23:41:45.552Z,97856.88
2018-12-21T23:44:49.030Z,97853.16
2018-12-21T23:47:52.311Z,97850.22
2018-12-21T23:50:55.638Z,97841.92
2018-12-21T23:53:58.868Z,97847.48
2018-12-21T23:57:03.528Z,97845.88
